createdAt,value
2017-01-26T00:00:15.941Z,924.13
2017-01-26T00:00:43.896Z,924.19
2017-01-26T00:01:12.010Z,924.17
2017-01-26T00:01:40.197Z,924.17
2017-01-26T00:02:08.510Z,924.16
2017-01-26T00:02:36.612Z,924.19
2017-01-26T00:03:04.660Z,924.2
2017-01-26T00:03:32.925Z,924.21
2017-01-26T00:04:44.153Z,924.19
2017-01-26T00:05:12.333Z,924.19
2017-01-26T00:05:40.617Z,924.2
2017-01-26T00:06:08.565Z,924.21
2017-01-26T00:06:36.705Z,924.19
2017-01-26T00:07:04.727Z,924.24
2017-01-26T00:07:33.011Z,924.22
2017-01-26T00:08:01.222Z,924.23
2017-01-26T00:08:29.229Z,924.24
2017-01-26T00:08:57.182Z,924.21
2017-01-26T00:09:25.185Z,924.24
2017-01-26T00:10:36.508Z,924.24
2017-01-26T00:11:04.687Z,924.26
2017-01-26T00:11:32.868Z,924.32
2017-01-26T00:12:01.007Z,924.31
2017-01-26T00:12:29.150Z,924.33
2017-01-26T00:12:57.266Z,924.31
2017-01-26T00:13:25.361Z,924.32
2017-01-26T00:13:53.584Z,924.3
2017-01-26T00:14:21.411Z,924.34
2017-01-26T00:14:49.456Z,924.32
2017-01-26T00:15:17.625Z,924.33
2017-01-26T00:16:28.773Z,924.3
2017-01-26T00:16:56.951Z,924.31
2017-01-26T00:17:25.137Z,924.34
2017-01-26T00:17:53.279Z,924.32
2017-01-26T00:18:21.424Z,924.31
2017-01-26T00:18:49.354Z,924.31
2017-01-26T00:19:17.458Z,924.33
2017-01-26T00:19:45.667Z,924.35
2017-01-26T00:20:13.762Z,924.34
2017-01-26T00:20:41.620Z,924.32
2017-01-26T00:21:09.881Z,924.31
2017-01-26T00:22:21.012Z,924.36
2017-01-26T00:22:49.290Z,924.31
2017-01-26T00:23:17.379Z,924.32
2017-01-26T00:23:45.427Z,924.33
2017-01-26T00:24:13.564Z,924.31
2017-01-26T00:24:41.775Z,924.29
2017-01-26T00:25:09.866Z,924.3
2017-01-26T00:25:38.076Z,924.26
2017-01-26T00:26:06.274Z,924.3
2017-01-26T00:26:34.418Z,924.32
2017-01-26T00:27:02.585Z,924.31
2017-01-26T00:28:13.817Z,924.29
2017-01-26T00:28:41.901Z,924.32
2017-01-26T00:29:10.179Z,924.3
2017-01-26T00:29:38.224Z,924.29
2017-01-26T00:30:06.268Z,924.31
2017-01-26T00:30:34.385Z,924.3
2017-01-26T00:31:02.672Z,924.3
2017-01-26T00:31:30.677Z,924.3
2017-01-26T00:31:58.780Z,924.3
2017-01-26T00:32:26.921Z,924.28
2017-01-26T00:32:55.214Z,924.24
2017-01-26T00:34:06.378Z,924.25
2017-01-26T00:34:34.559Z,924.23
2017-01-26T00:35:02.831Z,924.26
2017-01-26T00:35:30.983Z,924.23
2017-01-26T00:35:59.231Z,924.23
2017-01-26T00:36:27.361Z,924.23
2017-01-26T00:36:55.553Z,924.25
2017-01-26T00:37:23.693Z,924.25
2017-01-26T00:37:51.814Z,924.26
2017-01-26T00:38:20.054Z,924.27
2017-01-26T00:38:48.331Z,924.29
2017-01-26T00:39:59.668Z,924.3
2017-01-26T00:40:27.969Z,924.3
2017-01-26T00:40:56.153Z,924.3
2017-01-26T00:41:24.295Z,924.27
2017-01-26T00:41:52.444Z,924.29
2017-01-26T00:42:20.400Z,924.27
2017-01-26T00:42:48.569Z,924.31
2017-01-26T00:43:16.689Z,924.31
2017-01-26T00:43:44.793Z,924.3
2017-01-26T00:44:12.934Z,924.3
2017-01-26T00:44:41.108Z,924.32
2017-01-26T00:45:52.430Z,924.31
2017-01-26T00:46:20.705Z,924.33
2017-01-26T00:46:48.982Z,924.31
2017-01-26T00:47:16.931Z,924.31
2017-01-26T00:47:44.977Z,924.31
2017-01-26T00:48:13.192Z,924.29
2017-01-26T00:48:41.380Z,924.33
2017-01-26T00:49:09.308Z,924.34
2017-01-26T00:49:37.409Z,924.32
2017-01-26T00:50:05.365Z,924.29
2017-01-26T00:50:33.447Z,924.3
2017-01-26T00:51:44.587Z,924.31
2017-01-26T00:52:12.673Z,924.29
2017-01-26T00:52:40.763Z,924.28
2017-01-26T00:53:08.721Z,924.32
2017-01-26T00:53:36.768Z,924.28
2017-01-26T00:54:04.604Z,924.26
2017-01-26T00:54:32.794Z,924.26
2017-01-26T00:55:01.096Z,924.25
2017-01-26T00:55:29.193Z,924.24
2017-01-26T00:55:57.048Z,924.24
2017-01-26T00:56:25.218Z,924.26
2017-01-26T00:57:36.542Z,924.31
2017-01-26T00:58:04.633Z,924.29
2017-01-26T00:58:32.812Z,924.26
2017-01-26T00:59:00.862Z,924.24
2017-01-26T00:59:29.002Z,924.23
2017-01-26T00:59:57.116Z,924.23
2017-01-26T01:00:25.307Z,924.24
2017-01-26T01:00:53.516Z,924.26
2017-01-26T01:01:21.533Z,924.25
2017-01-26T01:01:49.497Z,924.29
2017-01-26T01:02:17.669Z,924.24
2017-01-26T01:03:28.990Z,924.25
2017-01-26T01:03:57.163Z,924.24
2017-01-26T01:04:25.345Z,924.24
2017-01-26T01:04:53.392Z,924.21
2017-01-26T01:05:21.553Z,924.22
2017-01-26T01:05:49.785Z,924.22
2017-01-26T01:06:18.137Z,924.18
2017-01-26T01:06:46.245Z,924.19
2017-01-26T01:07:14.595Z,924.22
2017-01-26T01:07:42.719Z,924.21
2017-01-26T01:08:10.969Z,924.22
2017-01-26T01:09:22.367Z,924.2
2017-01-26T01:09:50.545Z,924.21
2017-01-26T01:10:18.968Z,924.18
2017-01-26T01:10:47.113Z,924.17
2017-01-26T01:11:15.472Z,924.18
2017-01-26T01:11:43.630Z,924.16
2017-01-26T01:12:11.815Z,924.16
2017-01-26T01:12:40.025Z,924.17
2017-01-26T01:13:08.682Z,924.16
2017-01-26T01:13:36.813Z,924.19
2017-01-26T01:14:04.973Z,924.14
2017-01-26T01:15:16.493Z,924.16
2017-01-26T01:15:44.668Z,924.15
2017-01-26T01:16:13.118Z,924.16
2017-01-26T01:16:41.158Z,924.17
2017-01-26T01:17:09.426Z,924.17
2017-01-26T01:17:37.497Z,924.18
2017-01-26T01:18:05.769Z,924.17
2017-01-26T01:18:33.868Z,924.14
2017-01-26T01:19:02.231Z,924.15
2017-01-26T01:19:30.454Z,924.16
2017-01-26T01:19:58.712Z,924.15
2017-01-26T01:21:09.930Z,924.11
2017-01-26T01:21:38.211Z,924.16
2017-01-26T01:22:06.653Z,924.16
2017-01-26T01:22:34.706Z,924.17
2017-01-26T01:23:02.969Z,924.17
2017-01-26T01:23:31.032Z,924.16
2017-01-26T01:23:59.396Z,924.18
2017-01-26T01:24:27.605Z,924.18
2017-01-26T01:24:55.974Z,924.18
2017-01-26T01:25:24.203Z,924.17
2017-01-26T01:25:52.842Z,924.19
2017-01-26T01:27:04.151Z,924.18
2017-01-26T01:27:32.235Z,924.18
2017-01-26T01:28:00.674Z,924.23
2017-01-26T01:28:28.813Z,924.22
2017-01-26T01:28:57.171Z,924.22
2017-01-26T01:29:25.324Z,924.24
2017-01-26T01:29:53.496Z,924.22
2017-01-26T01:30:21.736Z,924.23
2017-01-26T01:30:49.907Z,924.26
2017-01-26T01:31:18.125Z,924.27
2017-01-26T01:31:46.473Z,924.26
2017-01-26T01:32:57.678Z,924.21
2017-01-26T01:33:25.950Z,924.28
2017-01-26T01:33:54.280Z,924.28
2017-01-26T01:34:22.514Z,924.26
2017-01-26T01:34:50.580Z,924.29
2017-01-26T01:35:18.722Z,924.3
2017-01-26T01:35:47.071Z,924.31
2017-01-26T01:36:15.202Z,924.3
2017-01-26T01:36:43.546Z,924.27
2017-01-26T01:37:11.655Z,924.33
2017-01-26T01:37:39.994Z,924.34
2017-01-26T01:38:51.288Z,924.35
2017-01-26T01:39:19.563Z,924.35
2017-01-26T01:39:47.807Z,924.35
2017-01-26T01:40:15.949Z,924.33
2017-01-26T01:40:44.022Z,924.34
2017-01-26T01:41:12.170Z,924.35
2017-01-26T01:41:40.334Z,924.33
2017-01-26T01:42:08.540Z,924.31
2017-01-26T01:42:36.584Z,924.31
2017-01-26T01:43:04.782Z,924.3
2017-01-26T01:43:33.116Z,924.29
2017-01-26T01:44:44.516Z,924.27
2017-01-26T01:45:12.789Z,924.25
2017-01-26T01:45:41.105Z,924.25
2017-01-26T01:46:09.149Z,924.25
2017-01-26T01:46:37.184Z,924.23
2017-01-26T01:47:05.230Z,924.21
2017-01-26T01:47:33.237Z,924.22
2017-01-26T01:48:01.438Z,924.21
2017-01-26T01:48:29.542Z,924.23
2017-01-26T01:48:57.586Z,924.22
2017-01-26T01:49:25.760Z,924.24
2017-01-26T01:50:36.898Z,924.24
2017-01-26T01:51:05.171Z,924.22
2017-01-26T01:51:33.443Z,924.23
2017-01-26T01:52:01.679Z,924.2
2017-01-26T01:52:29.813Z,924.24
2017-01-26T01:52:57.950Z,924.2
2017-01-26T01:53:26.049Z,924.2
2017-01-26T01:53:54.345Z,924.2
2017-01-26T01:54:22.447Z,924.2
2017-01-26T01:54:50.688Z,924.2
2017-01-26T01:55:18.860Z,924.17
2017-01-26T01:56:30.186Z,924.2
2017-01-26T01:56:58.452Z,924.15
2017-01-26T01:57:26.639Z,924.13
2017-01-26T01:57:54.776Z,924.14
2017-01-26T01:58:22.920Z,924.13
2017-01-26T01:58:51.033Z,924.17
2017-01-26T01:59:19.314Z,924.19
2017-01-26T01:59:47.522Z,924.2
2017-01-26T02:00:15.624Z,924.17
2017-01-26T02:00:43.765Z,924.16
2017-01-26T02:01:11.939Z,924.18
2017-01-26T02:02:23.265Z,924.2
2017-01-26T02:02:51.350Z,924.23
2017-01-26T02:03:19.531Z,924.15
2017-01-26T02:03:47.670Z,924.18
2017-01-26T02:04:15.903Z,924.19
2017-01-26T02:04:44.113Z,924.18
2017-01-26T02:05:12.300Z,924.17
2017-01-26T02:05:40.412Z,924.16
2017-01-26T02:06:08.517Z,924.15
2017-01-26T02:06:36.753Z,924.19
2017-01-26T02:07:04.923Z,924.15
2017-01-26T02:08:16.160Z,924.15
2017-01-26T02:08:44.340Z,924.11
2017-01-26T02:09:12.527Z,924.14
2017-01-26T02:09:40.475Z,924.13
2017-01-26T02:10:08.526Z,924.15
2017-01-26T02:10:36.734Z,924.13
2017-01-26T02:11:04.647Z,924.13
2017-01-26T02:11:32.558Z,924.13
2017-01-26T02:12:00.581Z,924.12
2017-01-26T02:12:28.721Z,924.13
2017-01-26T02:12:56.793Z,924.09
2017-01-26T02:14:08.139Z,924.14
2017-01-26T02:14:36.297Z,924.09
2017-01-26T02:15:04.379Z,924.13
2017-01-26T02:15:32.238Z,924.07
2017-01-26T02:16:00.409Z,924.1
2017-01-26T02:16:28.520Z,924.08
2017-01-26T02:16:56.616Z,924.06
2017-01-26T02:17:24.836Z,924.08
2017-01-26T02:17:53.050Z,924.06
2017-01-26T02:18:21.272Z,924.11
2017-01-26T02:18:49.535Z,924.09
2017-01-26T02:20:00.768Z,924.07
2017-01-26T02:20:28.853Z,924.07
2017-01-26T02:20:56.940Z,924.1
2017-01-26T02:21:25.092Z,924.07
2017-01-26T02:21:53.139Z,924.08
2017-01-26T02:22:21.255Z,924.06
2017-01-26T02:22:49.445Z,924.07
2017-01-26T02:23:17.558Z,924.04
2017-01-26T02:23:45.574Z,924.05
2017-01-26T02:24:13.808Z,924.03
2017-01-26T02:24:41.884Z,924.05
2017-01-26T02:25:53.112Z,924.05
2017-01-26T02:26:21.289Z,924.05
2017-01-26T02:26:49.470Z,924.11
2017-01-26T02:27:17.610Z,924.06
2017-01-26T02:27:45.658Z,924.06
2017-01-26T02:28:13.770Z,924.08
2017-01-26T02:28:42.058Z,924.09
2017-01-26T02:29:10.363Z,924.07
2017-01-26T02:29:38.372Z,924.04
2017-01-26T02:30:06.232Z,924.08
2017-01-26T02:30:34.500Z,924.02
2017-01-26T02:31:45.739Z,924.02
2017-01-26T02:32:13.917Z,924.02
2017-01-26T02:32:42.103Z,923.97
2017-01-26T02:33:10.238Z,924
2017-01-26T02:33:38.379Z,923.99
2017-01-26T02:34:06.580Z,923.99
2017-01-26T02:34:34.863Z,923.97
2017-01-26T02:35:02.967Z,923.94
2017-01-26T02:35:30.977Z,923.97
2017-01-26T02:35:59.121Z,923.96
2017-01-26T02:36:27.199Z,923.99
2017-01-26T02:37:38.527Z,923.96
2017-01-26T02:38:06.705Z,923.98
2017-01-26T02:38:34.794Z,923.99
2017-01-26T02:39:02.936Z,923.99
2017-01-26T02:39:31.080Z,923.97
2017-01-26T02:39:59.205Z,923.96
2017-01-26T02:40:27.398Z,923.97
2017-01-26T02:40:55.676Z,924
2017-01-26T02:41:23.873Z,923.97
2017-01-26T02:41:51.823Z,924
2017-01-26T02:42:19.992Z,924.03
2017-01-26T02:43:31.224Z,924.06
2017-01-26T02:43:59.501Z,924.01
2017-01-26T02:44:27.684Z,924.04
2017-01-26T02:44:55.733Z,924.03
2017-01-26T02:45:23.785Z,924.06
2017-01-26T02:45:51.699Z,924.04
2017-01-26T02:46:19.980Z,924.04
2017-01-26T02:46:48.093Z,924.03
2017-01-26T02:47:16.002Z,924.05
2017-01-26T02:47:43.955Z,924.05
2017-01-26T02:48:12.221Z,924.07
2017-01-26T02:49:23.446Z,924.02
2017-01-26T02:49:51.629Z,924.03
2017-01-26T02:50:19.719Z,924.01
2017-01-26T02:50:47.749Z,924.03
2017-01-26T02:51:15.984Z,924.02
2017-01-26T02:51:44.100Z,923.99
2017-01-26T02:52:12.194Z,923.98
2017-01-26T02:52:40.292Z,924.01
2017-01-26T02:53:08.391Z,924.04
2017-01-26T02:53:36.437Z,924
2017-01-26T02:54:04.609Z,923.99
2017-01-26T02:55:15.744Z,924.01
2017-01-26T02:55:43.734Z,923.94
2017-01-26T02:56:11.917Z,923.94
2017-01-26T02:56:39.961Z,923.95
2017-01-26T02:57:08.194Z,923.96
2017-01-26T02:57:36.122Z,923.96
2017-01-26T02:58:04.401Z,923.96
2017-01-26T02:58:32.689Z,923.96
2017-01-26T02:59:00.794Z,923.94
2017-01-26T02:59:29.026Z,923.96
2017-01-26T02:59:57.196Z,923.95
2017-01-26T03:01:08.340Z,923.91
2017-01-26T03:01:36.331Z,923.92
2017-01-26T03:02:04.509Z,923.93
2017-01-26T03:02:32.648Z,923.9
2017-01-26T03:03:00.883Z,923.89
2017-01-26T03:03:28.906Z,923.91
2017-01-26T03:03:57.191Z,923.91
2017-01-26T03:04:25.479Z,923.9
2017-01-26T03:04:53.578Z,923.88
2017-01-26T03:05:21.531Z,923.9
2017-01-26T03:05:49.608Z,923.88
2017-01-26T03:07:00.651Z,923.88
2017-01-26T03:07:28.647Z,923.89
2017-01-26T03:07:56.920Z,923.88
2017-01-26T03:08:25.155Z,923.88
2017-01-26T03:08:53.199Z,923.83
2017-01-26T03:09:21.415Z,923.83
2017-01-26T03:09:50.039Z,923.82
2017-01-26T03:10:18.226Z,923.82
2017-01-26T03:10:46.235Z,923.83
2017-01-26T03:11:14.277Z,923.83
2017-01-26T03:11:42.546Z,923.79
2017-01-26T03:12:53.867Z,923.78
2017-01-26T03:13:22.048Z,923.79
2017-01-26T03:13:50.228Z,923.83
2017-01-26T03:14:18.276Z,923.8
2017-01-26T03:14:46.234Z,923.77
2017-01-26T03:15:14.348Z,923.79
2017-01-26T03:15:42.634Z,923.78
2017-01-26T03:16:10.829Z,923.78
2017-01-26T03:16:38.742Z,923.82
2017-01-26T03:17:06.787Z,923.77
2017-01-26T03:17:34.962Z,923.79
2017-01-26T03:18:46.194Z,923.8
2017-01-26T03:19:14.469Z,923.79
2017-01-26T03:19:42.652Z,923.78
2017-01-26T03:20:10.882Z,923.78
2017-01-26T03:20:39.113Z,923.74
2017-01-26T03:21:06.949Z,923.72
2017-01-26T03:21:35.136Z,923.73
2017-01-26T03:22:03.416Z,923.7
2017-01-26T03:22:31.526Z,923.72
2017-01-26T03:22:59.759Z,923.72
2017-01-26T03:23:28.019Z,923.69
2017-01-26T03:24:39.247Z,923.68
2017-01-26T03:25:07.520Z,923.69
2017-01-26T03:25:35.791Z,923.67
2017-01-26T03:26:03.841Z,923.64
2017-01-26T03:26:32.074Z,923.6
2017-01-26T03:26:59.998Z,923.6
2017-01-26T03:27:28.279Z,923.6
2017-01-26T03:27:56.371Z,923.59
2017-01-26T03:28:24.472Z,923.59
2017-01-26T03:28:52.521Z,923.56
2017-01-26T03:29:20.597Z,923.55
2017-01-26T03:30:31.833Z,923.55
2017-01-26T03:31:00.011Z,923.55
2017-01-26T03:31:28.097Z,923.52
2017-01-26T03:31:56.239Z,923.52
2017-01-26T03:32:24.474Z,923.5
2017-01-26T03:32:52.593Z,923.51
2017-01-26T03:33:20.879Z,923.47
2017-01-26T03:33:49.179Z,923.44
2017-01-26T03:34:17.272Z,923.43
2017-01-26T03:34:45.409Z,923.41
2017-01-26T03:35:13.667Z,923.37
2017-01-26T03:36:24.895Z,923.39
2017-01-26T03:36:52.890Z,923.36
2017-01-26T03:37:21.071Z,923.38
2017-01-26T03:37:49.302Z,923.38
2017-01-26T03:38:17.342Z,923.38
2017-01-26T03:38:45.455Z,923.41
2017-01-26T03:39:13.732Z,923.39
2017-01-26T03:39:42.014Z,923.36
2017-01-26T03:40:10.118Z,923.41
2017-01-26T03:40:38.259Z,923.39
2017-01-26T03:41:06.341Z,923.42
2017-01-26T03:42:17.666Z,923.37
2017-01-26T03:42:45.842Z,923.41
2017-01-26T03:43:14.040Z,923.39
2017-01-26T03:43:42.180Z,923.41
2017-01-26T03:44:10.036Z,923.38
2017-01-26T03:44:38.244Z,923.4
2017-01-26T03:45:06.431Z,923.37
2017-01-26T03:45:34.718Z,923.36
2017-01-26T03:46:02.727Z,923.36
2017-01-26T03:46:30.866Z,923.37
2017-01-26T03:46:59.033Z,923.34
2017-01-26T03:48:10.168Z,923.35
2017-01-26T03:48:38.256Z,923.32
2017-01-26T03:49:06.250Z,923.33
2017-01-26T03:49:34.484Z,923.28
2017-01-26T03:50:02.625Z,923.24
2017-01-26T03:50:30.646Z,923.28
2017-01-26T03:50:58.740Z,923.3
2017-01-26T03:51:26.843Z,923.26
2017-01-26T03:51:54.948Z,923.22
2017-01-26T03:52:22.903Z,923.22
2017-01-26T03:52:50.980Z,923.19
2017-01-26T03:54:02.305Z,923.2
2017-01-26T03:54:30.199Z,923.2
2017-01-26T03:54:58.471Z,923.19
2017-01-26T03:55:26.610Z,923.18
2017-01-26T03:55:54.556Z,923.18
2017-01-26T03:56:22.669Z,923.19
2017-01-26T03:56:50.763Z,923.15
2017-01-26T03:57:18.859Z,923.14
2017-01-26T03:57:46.956Z,923.16
2017-01-26T03:58:15.100Z,923.15
2017-01-26T03:58:43.363Z,923.13
2017-01-26T03:59:54.502Z,923.18
2017-01-26T04:00:22.677Z,923.2
2017-01-26T04:00:50.960Z,923.16
2017-01-26T04:01:19.002Z,923.2
2017-01-26T04:01:47.145Z,923.2
2017-01-26T04:02:15.158Z,923.19
2017-01-26T04:02:43.444Z,923.18
2017-01-26T04:03:11.538Z,923.18
2017-01-26T04:03:39.641Z,923.18
2017-01-26T04:04:07.779Z,923.21
2017-01-26T04:04:35.859Z,923.18
2017-01-26T04:05:46.994Z,923.21
2017-01-26T04:06:15.175Z,923.26
2017-01-26T04:06:43.448Z,923.22
2017-01-26T04:07:11.585Z,923.2
2017-01-26T04:07:39.542Z,923.2
2017-01-26T04:08:07.750Z,923.25
2017-01-26T04:08:35.935Z,923.22
2017-01-26T04:09:04.130Z,923.19
2017-01-26T04:09:32.143Z,923.19
2017-01-26T04:10:00.374Z,923.18
2017-01-26T04:10:28.638Z,923.18
2017-01-26T04:11:39.867Z,923.18
2017-01-26T04:12:07.952Z,923.2
2017-01-26T04:12:36.226Z,923.18
2017-01-26T04:13:04.362Z,923.16
2017-01-26T04:13:32.404Z,923.19
2017-01-26T04:14:00.518Z,923.16
2017-01-26T04:14:28.800Z,923.18
2017-01-26T04:14:57.082Z,923.2
2017-01-26T04:15:25.272Z,923.21
2017-01-26T04:15:53.236Z,923.19
2017-01-26T04:16:21.317Z,923.22
2017-01-26T04:17:32.643Z,923.18
2017-01-26T04:18:00.820Z,923.19
2017-01-26T04:18:29.093Z,923.19
2017-01-26T04:18:57.224Z,923.17
2017-01-26T04:19:25.168Z,923.15
2017-01-26T04:19:53.374Z,923.16
2017-01-26T04:20:21.660Z,923.14
2017-01-26T04:20:49.760Z,923.15
2017-01-26T04:21:17.771Z,923.15
2017-01-26T04:21:45.727Z,923.16
2017-01-26T04:22:13.900Z,923.14
2017-01-26T04:23:25.038Z,923.1
2017-01-26T04:23:53.309Z,923.09
2017-01-26T04:24:21.584Z,923.09
2017-01-26T04:24:49.812Z,923.1
2017-01-26T04:25:17.952Z,923.09
2017-01-26T04:25:46.160Z,923.11
2017-01-26T04:26:14.257Z,923.07
2017-01-26T04:26:42.544Z,923.05
2017-01-26T04:27:10.566Z,923.05
2017-01-26T04:27:38.787Z,923.02
2017-01-26T04:28:06.954Z,923.01
2017-01-26T04:29:18.277Z,923.01
2017-01-26T04:29:46.371Z,923.01
2017-01-26T04:30:14.640Z,923
2017-01-26T04:30:42.774Z,923.02
2017-01-26T04:31:11.011Z,923.02
2017-01-26T04:31:39.130Z,923.03
2017-01-26T04:32:07.325Z,923.02
2017-01-26T04:32:35.504Z,923.01
2017-01-26T04:33:03.615Z,923.03
2017-01-26T04:33:31.751Z,923.01
2017-01-26T04:34:00.015Z,922.98
2017-01-26T04:35:11.246Z,923.01
2017-01-26T04:35:39.428Z,922.98
2017-01-26T04:36:07.609Z,923
2017-01-26T04:36:35.842Z,923.03
2017-01-26T04:37:03.980Z,923.03
2017-01-26T04:37:32.098Z,923.02
2017-01-26T04:38:00.192Z,923.01
2017-01-26T04:38:28.383Z,922.99
2017-01-26T04:38:56.485Z,922.99
2017-01-26T04:39:24.626Z,922.97
2017-01-26T04:39:52.701Z,922.98
2017-01-26T04:41:03.933Z,922.98
2017-01-26T04:41:32.109Z,922.95
2017-01-26T04:42:00.384Z,922.97
2017-01-26T04:42:28.620Z,922.96
2017-01-26T04:42:56.669Z,922.96
2017-01-26T04:43:24.783Z,922.98
2017-01-26T04:43:52.975Z,922.98
2017-01-26T04:44:21.253Z,922.98
2017-01-26T04:44:49.260Z,922.98
2017-01-26T04:45:17.303Z,922.95
2017-01-26T04:45:45.472Z,922.97
2017-01-26T04:46:56.706Z,922.99
2017-01-26T04:47:24.977Z,922.97
2017-01-26T04:47:53.069Z,922.96
2017-01-26T04:48:21.304Z,922.98
2017-01-26T04:48:49.532Z,922.94
2017-01-26T04:49:17.648Z,922.93
2017-01-26T04:49:45.934Z,922.95
2017-01-26T04:50:13.938Z,922.94
2017-01-26T04:50:41.951Z,922.93
2017-01-26T04:51:10.000Z,922.94
2017-01-26T04:51:38.265Z,922.92
2017-01-26T04:52:49.401Z,922.93
2017-01-26T04:53:17.579Z,922.96
2017-01-26T04:53:45.666Z,922.97
2017-01-26T04:54:13.810Z,922.93
2017-01-26T04:54:41.865Z,922.89
2017-01-26T04:55:09.977Z,922.92
2017-01-26T04:55:38.167Z,922.93
2017-01-26T04:56:06.355Z,922.93
2017-01-26T04:56:34.460Z,922.93
2017-01-26T04:57:02.692Z,922.91
2017-01-26T04:57:30.860Z,922.94
2017-01-26T04:58:42.092Z,922.94
2017-01-26T04:59:10.268Z,922.94
2017-01-26T04:59:38.540Z,922.9
2017-01-26T05:00:06.595Z,922.91
2017-01-26T05:00:34.823Z,922.94
2017-01-26T05:01:02.941Z,922.95
2017-01-26T05:01:31.128Z,922.9
2017-01-26T05:01:59.319Z,922.94
2017-01-26T05:02:27.327Z,922.91
2017-01-26T05:02:55.579Z,922.93
2017-01-26T05:03:23.787Z,922.9
2017-01-26T05:04:35.032Z,922.94
2017-01-26T05:05:03.115Z,922.9
2017-01-26T05:05:31.348Z,922.89
2017-01-26T05:05:59.468Z,922.89
2017-01-26T05:06:27.632Z,922.93
2017-01-26T05:06:55.798Z,922.89
2017-01-26T05:07:24.105Z,922.93
2017-01-26T05:07:52.316Z,922.9
2017-01-26T05:08:20.488Z,922.89
2017-01-26T05:08:48.659Z,922.9
2017-01-26T05:09:16.864Z,922.87
2017-01-26T05:10:28.006Z,922.89
2017-01-26T05:10:56.291Z,922.91
2017-01-26T05:11:24.334Z,922.87
2017-01-26T05:11:52.640Z,922.9
2017-01-26T05:12:20.899Z,922.89
2017-01-26T05:12:49.063Z,922.91
2017-01-26T05:13:17.371Z,922.88
2017-01-26T05:13:45.546Z,922.87
2017-01-26T05:14:13.717Z,922.89
2017-01-26T05:14:42.070Z,922.88
2017-01-26T05:15:10.372Z,922.93
2017-01-26T05:16:21.326Z,922.89
2017-01-26T05:16:49.514Z,922.91
2017-01-26T05:17:17.837Z,922.9
2017-01-26T05:17:45.958Z,922.9
2017-01-26T05:18:14.030Z,922.9
2017-01-26T05:18:42.197Z,922.89
2017-01-26T05:19:10.416Z,922.87
2017-01-26T05:19:38.625Z,922.93
2017-01-26T05:20:06.897Z,922.92
2017-01-26T05:20:35.066Z,922.85
2017-01-26T05:21:03.371Z,922.91
2017-01-26T05:22:14.519Z,922.91
2017-01-26T05:22:42.422Z,922.93
2017-01-26T05:23:10.749Z,922.94
2017-01-26T05:23:38.967Z,922.93
2017-01-26T05:24:07.659Z,922.9
2017-01-26T05:24:35.544Z,922.86
2017-01-26T05:25:03.857Z,922.9
2017-01-26T05:25:31.981Z,922.9
2017-01-26T05:25:59.960Z,922.9
2017-01-26T05:26:28.126Z,922.88
2017-01-26T05:26:56.428Z,922.88
2017-01-26T05:28:07.759Z,922.88
2017-01-26T05:28:35.945Z,922.86
2017-01-26T05:29:04.191Z,922.83
2017-01-26T05:29:32.494Z,922.81
2017-01-26T05:30:00.562Z,922.84
2017-01-26T05:30:28.728Z,922.82
2017-01-26T05:30:56.948Z,922.8
2017-01-26T05:31:25.162Z,922.8
2017-01-26T05:31:53.332Z,922.84
2017-01-26T05:32:21.593Z,922.82
2017-01-26T05:32:49.900Z,922.83
2017-01-26T05:34:01.240Z,922.83
2017-01-26T05:34:29.331Z,922.86
2017-01-26T05:34:57.374Z,922.86
2017-01-26T05:35:25.580Z,922.86
2017-01-26T05:35:53.832Z,922.87
2017-01-26T05:36:21.905Z,922.89
2017-01-26T05:36:50.026Z,922.85
2017-01-26T05:37:17.956Z,922.87
2017-01-26T05:37:46.036Z,922.85
2017-01-26T05:38:14.221Z,922.83
2017-01-26T05:38:42.265Z,922.81
2017-01-26T05:39:53.600Z,922.82
2017-01-26T05:40:21.787Z,922.8
2017-01-26T05:40:49.956Z,922.82
2017-01-26T05:41:18.082Z,922.81
2017-01-26T05:41:46.242Z,922.76
2017-01-26T05:42:14.502Z,922.79
2017-01-26T05:42:42.811Z,922.75
2017-01-26T05:43:11.026Z,922.76
2017-01-26T05:43:39.287Z,922.74
2017-01-26T05:44:07.358Z,922.75
2017-01-26T05:44:35.473Z,922.75
2017-01-26T05:45:46.807Z,922.72
2017-01-26T05:46:14.899Z,922.69
2017-01-26T05:46:43.133Z,922.7
2017-01-26T05:47:11.346Z,922.67
2017-01-26T05:47:39.508Z,922.67
2017-01-26T05:48:07.773Z,922.69
2017-01-26T05:48:35.891Z,922.63
2017-01-26T05:49:04.104Z,922.64
2017-01-26T05:49:32.285Z,922.66
2017-01-26T05:50:00.454Z,922.63
2017-01-26T05:50:28.575Z,922.62
2017-01-26T05:51:39.809Z,922.63
2017-01-26T05:52:07.995Z,922.59
2017-01-26T05:52:36.132Z,922.6
2017-01-26T05:53:04.438Z,922.61
2017-01-26T05:53:32.598Z,922.6
2017-01-26T05:54:00.762Z,922.63
2017-01-26T05:54:28.789Z,922.61
2017-01-26T05:54:57.095Z,922.6
2017-01-26T05:55:25.366Z,922.52
2017-01-26T05:55:53.625Z,922.55
2017-01-26T05:56:21.741Z,922.56
2017-01-26T05:57:32.895Z,922.53
2017-01-26T05:58:01.085Z,922.55
2017-01-26T05:58:29.409Z,922.56
2017-01-26T05:58:57.619Z,922.55
2017-01-26T05:59:25.781Z,922.57
2017-01-26T05:59:53.951Z,922.58
2017-01-26T06:00:22.265Z,922.56
2017-01-26T06:00:50.476Z,922.59
2017-01-26T06:01:18.647Z,922.6
2017-01-26T06:01:46.636Z,922.54
2017-01-26T06:02:14.754Z,922.56
2017-01-26T06:03:26.004Z,922.6
2017-01-26T06:03:54.280Z,922.58
2017-01-26T06:04:22.511Z,922.55
2017-01-26T06:04:50.716Z,922.55
2017-01-26T06:05:18.967Z,922.55
2017-01-26T06:05:47.043Z,922.53
2017-01-26T06:06:15.347Z,922.53
2017-01-26T06:06:43.563Z,922.56
2017-01-26T06:07:11.547Z,922.58
2017-01-26T06:07:39.621Z,922.59
2017-01-26T06:08:07.638Z,922.58
2017-01-26T06:09:18.974Z,922.57
2017-01-26T06:09:47.058Z,922.64
2017-01-26T06:10:15.202Z,922.61
2017-01-26T06:10:43.410Z,922.63
2017-01-26T06:11:11.573Z,922.64
2017-01-26T06:11:39.732Z,922.61
2017-01-26T06:12:07.947Z,922.6
2017-01-26T06:12:36.158Z,922.6
2017-01-26T06:13:04.424Z,922.62
2017-01-26T06:13:32.686Z,922.58
2017-01-26T06:14:00.987Z,922.59
2017-01-26T06:15:12.324Z,922.54
2017-01-26T06:15:40.416Z,922.6
2017-01-26T06:16:08.647Z,922.6
2017-01-26T06:16:36.858Z,922.58
2017-01-26T06:17:04.920Z,922.59
2017-01-26T06:17:32.901Z,922.62
2017-01-26T06:18:01.021Z,922.62
2017-01-26T06:18:29.238Z,922.61
2017-01-26T06:18:57.503Z,922.63
2017-01-26T06:19:25.768Z,922.63
2017-01-26T06:19:54.069Z,922.64
2017-01-26T06:21:05.308Z,922.61
2017-01-26T06:21:33.501Z,922.62
2017-01-26T06:22:01.636Z,922.65
2017-01-26T06:22:29.944Z,922.66
2017-01-26T06:22:58.107Z,922.67
2017-01-26T06:23:26.277Z,922.64
2017-01-26T06:23:54.492Z,922.63
2017-01-26T06:24:22.609Z,922.67
2017-01-26T06:24:50.601Z,922.67
2017-01-26T06:25:18.860Z,922.65
2017-01-26T06:25:46.978Z,922.66
2017-01-26T06:26:58.312Z,922.66
2017-01-26T06:27:26.589Z,922.65
2017-01-26T06:27:54.631Z,922.63
2017-01-26T06:28:22.841Z,922.63
2017-01-26T06:28:51.092Z,922.65
2017-01-26T06:29:19.164Z,922.63
2017-01-26T06:29:47.379Z,922.66
2017-01-26T06:30:15.503Z,922.67
2017-01-26T06:30:43.582Z,922.64
2017-01-26T06:31:11.654Z,922.71
2017-01-26T06:31:39.960Z,922.69
2017-01-26T06:32:51.201Z,922.7
2017-01-26T06:33:19.476Z,922.77
2017-01-26T06:33:47.714Z,922.76
2017-01-26T06:34:16.012Z,922.75
2017-01-26T06:34:44.170Z,922.8
2017-01-26T06:35:12.338Z,922.78
2017-01-26T06:35:40.551Z,922.77
2017-01-26T06:36:08.859Z,922.75
2017-01-26T06:36:37.126Z,922.75
2017-01-26T06:37:05.294Z,922.77
2017-01-26T06:37:33.413Z,922.78
2017-01-26T06:38:44.744Z,922.78
2017-01-26T06:39:12.745Z,922.78
2017-01-26T06:39:41.067Z,922.81
2017-01-26T06:40:09.285Z,922.75
2017-01-26T06:40:37.448Z,922.78
2017-01-26T06:41:05.711Z,922.79
2017-01-26T06:41:34.021Z,922.8